sensor_id;sensor_type;location;lat;lon;timestamp;pressure;altitude;pressure_sealevel;temperature;humidity
57234;BME280;43090;52.604;13.318;2022-09-23T00:02:19;101688.38;;;6.03;95.70
57234;BME280;43090;52.604;13.318;2022-09-23T00:13:36;101641.25;;;5.07;98.90
57234;BME280;43090;52.604;13.318;2022-09-23T00:16:17;101640.28;;;5.34;98.82
57234;BME280;43090;52.604;13.318;2022-09-23T00:18:43;101641.66;;;5.72;97.13
57234;BME280;43090;52.604;13.318;2022-09-23T00:21:15;101629.69;;;5.58;97.42
57234;BME280;43090;52.604;13.318;2022-09-23T00:23:45;101628.00;;;5.05;98.58
57234;BME280;43090;52.604;13.318;2022-09-23T00:26:14;101671.03;;;5.42;99.88
57234;BME280;43090;52.604;13.318;2022-09-23T00:28:42;101662.25;;;5.13;100.00
57234;BME280;43090;52.604;13.318;2022-09-23T00:31:14;101654.63;;;5.54;100.00
57234;BME280;43090;52.604;13.318;2022-09-23T00:33:42;101639.69;;;5.51;95.94
57234;BME280;43090;52.604;13.318;2022-09-23T00:36:10;101686.44;;;5.57;98.82
57234;BME280;43090;52.604;13.318;2022-09-23T00:38:40;101626.97;;;5.09;99.72
57234;BME280;43090;52.604;13.318;2022-09-23T00:41:06;101656.25;;;5.33;98.34
57234;BME280;43090;52.604;13.318;2022-09-23T00:43:43;101655.13;;;5.65;97.82
57234;BME280;43090;52.604;13.318;2022-09-23T00:46:33;101627.03;;;5.33;98.16
57234;BME280;43090;52.604;13.318;2022-09-23T00:49:06;101627.34;;;5.25;98.39
57234;BME280;43090;52.604;13.318;2022-09-23T00:51:40;101637.66;;;5.58;96.76
57234;BME280;43090;52.604;13.318;2022-09-23T00:54:09;101626.13;;;5.59;95.49
57234;BME280;43090;52.604;13.318;2022-09-23T00:56:38;101672.00;;;5.39;96.83
57234;BME280;43090;52.604;13.318;2022-09-23T00:59:06;101602.88;;;5.41;96.16
57234;BME280;43090;52.604;13.318;2022-09-23T01:01:36;101636.34;;;5.70;95.47
57234;BME280;43090;52.604;13.318;2022-09-23T01:04:06;101664.63;;;6.22;93.68
57234;BME280;43090;52.604;13.318;2022-09-23T01:06:53;101608.50;;;5.57;94.16
57234;BME280;43090;52.604;13.318;2022-09-23T01:09:23;101613.50;;;5.90;94.36
57234;BME280;43090;52.604;13.318;2022-09-23T01:12:24;101667.81;;;6.08;93.31
57234;BME280;43090;52.604;13.318;2022-09-23T01:18:22;101633.19;;;5.35;96.57
57234;BME280;43090;52.604;13.318;2022-09-23T01:21:23;101601.81;;;4.67;97.52
57234;BME280;43090;52.604;13.318;2022-09-23T01:35:19;101601.53;;;5.78;92.42
57234;BME280;43090;52.604;13.318;2022-09-23T01:38:04;101598.06;;;5.02;93.59
57234;BME280;43090;52.604;13.318;2022-09-23T01:43:45;101602.56;;;5.74;93.04
57234;BME280;43090;52.604;13.318;2022-09-23T01:46:25;101603.34;;;5.77;90.80
57234;BME280;43090;52.604;13.318;2022-09-23T01:49:12;101618.63;;;4.95;95.50
57234;BME280;43090;52.604;13.318;2022-09-23T01:51:45;101592.97;;;5.46;93.77
57234;BME280;43090;52.604;13.318;2022-09-23T01:54:31;101636.94;;;6.04;91.47
57234;BME280;43090;52.604;13.318;2022-09-23T01:57:09;101580.78;;;5.15;93.08
57234;BME280;43090;52.604;13.318;2022-09-23T01:59:48;101608.44;;;5.58;92.50
57234;BME280;43090;52.604;13.318;2022-09-23T02:02:26;101572.84;;;4.61;95.04
57234;BME280;43090;52.604;13.318;2022-09-23T02:05:41;101593.16;;;4.89;96.56
57234;BME280;43090;52.604;13.318;2022-09-23T02:08:26;101573.47;;;4.96;94.87
57234;BME280;43090;52.604;13.318;2022-09-23T02:11:12;101584.38;;;4.87;94.98
57234;BME280;43090;52.604;13.318;2022-09-23T02:13:55;101609.66;;;4.44;98.14
57234;BME280;43090;52.604;13.318;2022-09-23T02:16:36;101577.66;;;4.50;100.00
57234;BME280;43090;52.604;13.318;2022-09-23T02:21:47;101597.44;;;4.66;98.66
57234;BME280;43090;52.604;13.318;2022-09-23T02:24:22;101548.06;;;4.62;98.07
57234;BME280;43090;52.604;13.318;2022-09-23T02:26:52;101605.13;;;4.47;99.54
57234;BME280;43090;52.604;13.318;2022-09-23T02:32:20;101578.44;;;4.52;98.00
57234;BME280;43090;52.604;13.318;2022-09-23T02:35:31;101579.88;;;4.36;99.24
57234;BME280;43090;52.604;13.318;2022-09-23T02:40:45;101576.41;;;4.60;98.63
57234;BME280;43090;52.604;13.318;2022-09-23T02:43:52;101545.09;;;4.16;100.00
57234;BME280;43090;52.604;13.318;2022-09-23T02:46:20;101582.47;;;4.37;100.00
57234;BME280;43090;52.604;13.318;2022-09-23T02:48:52;101587.41;;;5.28;97.69
57234;BME280;43090;52.604;13.318;2022-09-23T02:51:21;101560.00;;;4.49;97.07
57234;BME280;43090;52.604;13.318;2022-09-23T02:53:53;101582.31;;;4.42;99.59
57234;BME280;43090;52.604;13.318;2022-09-23T02:56:21;101561.09;;;4.42;100.00
57234;BME280;43090;52.604;13.318;2022-09-23T02:58:48;101564.09;;;4.59;99.42
57234;BME280;43090;52.604;13.318;2022-09-23T03:09:18;101560.59;;;5.09;95.40
57234;BME280;43090;52.604;13.318;2022-09-23T03:11:54;101548.97;;;4.34;97.29
57234;BME280;43090;52.604;13.318;2022-09-23T03:14:29;101525.63;;;4.46;97.48
57234;BME280;43090;52.604;13.318;2022-09-23T03:17:11;101509.91;;;4.40;96.48
57234;BME280;43090;52.604;13.318;2022-09-23T03:20:06;101570.44;;;5.07;94.23
57234;BME280;43090;52.604;13.318;2022-09-23T03:22:45;101553.25;;;4.65;97.13
57234;BME280;43090;52.604;13.318;2022-09-23T03:25:16;101572.31;;;5.04;94.96
57234;BME280;43090;52.604;13.318;2022-09-23T03:27:44;101558.38;;;5.22;92.33
57234;BME280;43090;52.604;13.318;2022-09-23T03:30:12;101566.94;;;5.05;93.47
57234;BME280;43090;52.604;13.318;2022-09-23T03:32:43;101564.69;;;4.67;95.90
57234;BME280;43090;52.604;13.318;2022-09-23T03:35:11;101549.13;;;4.28;98.50
57234;BME280;43090;52.604;13.318;2022-09-23T03:37:43;101548.88;;;4.09;99.07
57234;BME280;43090;52.604;13.318;2022-09-23T03:40:20;101556.88;;;4.63;97.58
57234;BME280;43090;52.604;13.318;2022-09-23T03:42:49;101557.41;;;4.47;97.69
57234;BME280;43090;52.604;13.318;2022-09-23T03:45:20;101527.91;;;4.02;99.40
57234;BME280;43090;52.604;13.318;2022-09-23T03:47:47;101539.78;;;4.45;96.84
57234;BME280;43090;52.604;13.318;2022-09-23T03:50:14;101528.31;;;4.44;97.53
57234;BME280;43090;52.604;13.318;2022-09-23T03:52:43;101522.97;;;4.73;94.78
57234;BME280;43090;52.604;13.318;2022-09-23T03:55:10;101534.28;;;4.51;94.77
57234;BME280;43090;52.604;13.318;2022-09-23T03:57:37;101542.50;;;4.70;96.82
57234;BME280;43090;52.604;13.318;2022-09-23T04:00:05;101538.75;;;4.22;97.25
57234;BME280;43090;52.604;13.318;2022-09-23T04:02:33;101535.94;;;4.54;94.53
57234;BME280;43090;52.604;13.318;2022-09-23T04:04:59;101523.66;;;3.96;97.71
57234;BME280;43090;52.604;13.318;2022-09-23T04:07:26;101521.59;;;4.34;97.54
57234;BME280;43090;52.604;13.318;2022-09-23T04:09:53;101521.78;;;4.28;95.70
57234;BME280;43090;52.604;13.318;2022-09-23T04:12:20;101512.13;;;4.25;97.65
57234;BME280;43090;52.604;13.318;2022-09-23T04:14:46;101516.81;;;4.71;94.29
57234;BME280;43090;52.604;13.318;2022-09-23T04:17:13;101530.91;;;4.73;94.87
57234;BME280;43090;52.604;13.318;2022-09-23T04:19:40;101507.50;;;4.32;96.00
57234;BME280;43090;52.604;13.318;2022-09-23T04:22:07;101499.47;;;4.62;94.37
57234;BME280;43090;52.604;13.318;2022-09-23T04:24:38;101519.78;;;4.61;94.20
57234;BME280;43090;52.604;13.318;2022-09-23T04:27:05;101491.47;;;4.37;94.44
57234;BME280;43090;52.604;13.318;2022-09-23T04:29:31;101507.91;;;3.91;97.23
57234;BME280;43090;52.604;13.318;2022-09-23T04:31:58;101497.25;;;3.93;97.51
57234;BME280;43090;52.604;13.318;2022-09-23T04:34:24;101528.47;;;4.40;96.85
57234;BME280;43090;52.604;13.318;2022-09-23T04:36:54;101476.38;;;3.82;97.25
57234;BME280;43090;52.604;13.318;2022-09-23T04:39:21;101487.03;;;4.09;96.82
57234;BME280;43090;52.604;13.318;2022-09-23T04:41:47;101492.31;;;4.09;97.28
57234;BME280;43090;52.604;13.318;2022-09-23T04:44:14;101496.94;;;4.04;97.15
57234;BME280;43090;52.604;13.318;2022-09-23T04:46:41;101495.16;;;4.31;96.81
57234;BME280;43090;52.604;13.318;2022-09-23T04:49:09;101486.22;;;4.07;94.72
57234;BME280;43090;52.604;13.318;2022-09-23T04:51:36;101489.41;;;4.18;96.00
57234;BME280;43090;52.604;13.318;2022-09-23T04:54:02;101494.53;;;4.49;94.95
57234;BME280;43090;52.604;13.318;2022-09-23T04:56:29;101471.34;;;3.44;96.17
57234;BME280;43090;52.604;13.318;2022-09-23T05:09:55;101486.53;;;4.24;97.80
57234;BME280;43090;52.604;13.318;2022-09-23T05:12:46;101516.66;;;4.50;96.03
57234;BME280;43090;52.604;13.318;2022-09-23T05:20:10;101449.84;;;3.55;96.71
57234;BME280;43090;52.604;13.318;2022-09-23T05:27:22;101523.69;;;5.03;92.65
57234;BME280;43090;52.604;13.318;2022-09-23T05:33:51;101483.94;;;3.66;97.32
57234;BME280;43090;52.604;13.318;2022-09-23T05:36:20;101519.25;;;4.25;98.24
57234;BME280;43090;52.604;13.318;2022-09-23T05:38:48;101492.78;;;3.95;98.13
57234;BME280;43090;52.604;13.318;2022-09-23T05:41:16;101473.03;;;4.32;97.13
57234;BME280;43090;52.604;13.318;2022-09-23T05:43:43;101509.25;;;4.33;96.77
57234;BME280;43090;52.604;13.318;2022-09-23T05:46:10;101512.38;;;4.46;96.48
57234;BME280;43090;52.604;13.318;2022-09-23T05:48:38;101461.06;;;4.20;96.88
57234;BME280;43090;52.604;13.318;2022-09-23T05:51:09;101504.91;;;4.30;97.11
57234;BME280;43090;52.604;13.318;2022-09-23T05:53:39;101502.66;;;4.72;96.45
57234;BME280;43090;52.604;13.318;2022-09-23T05:56:06;101474.66;;;4.36;97.71
57234;BME280;43090;52.604;13.318;2022-09-23T05:58:33;101509.28;;;4.58;97.17
57234;BME280;43090;52.604;13.318;2022-09-23T06:01:00;101486.34;;;4.82;96.22
57234;BME280;43090;52.604;13.318;2022-09-23T06:03:26;101470.41;;;5.08;94.43
57234;BME280;43090;52.604;13.318;2022-09-23T06:05:53;101516.41;;;5.33;93.55
57234;BME280;43090;52.604;13.318;2022-09-23T06:08:21;101501.94;;;5.17;94.56
57234;BME280;43090;52.604;13.318;2022-09-23T06:10:48;101508.03;;;4.95;96.92
57234;BME280;43090;52.604;13.318;2022-09-23T06:13:22;101461.50;;;4.85;95.67
57234;BME280;43090;52.604;13.318;2022-09-23T06:15:49;101496.78;;;5.38;95.19
57234;BME280;43090;52.604;13.318;2022-09-23T06:18:19;101494.88;;;5.41;95.87
57234;BME280;43090;52.604;13.318;2022-09-23T06:20:45;101515.34;;;5.85;94.45
57234;BME280;43090;52.604;13.318;2022-09-23T06:23:13;101481.94;;;5.32;94.87
57234;BME280;43090;52.604;13.318;2022-09-23T06:25:40;101512.16;;;5.53;95.97
57234;BME280;43090;52.604;13.318;2022-09-23T06:28:09;101474.25;;;5.24;96.76
57234;BME280;43090;52.604;13.318;2022-09-23T06:30:40;101522.97;;;5.94;96.90
57234;BME280;43090;52.604;13.318;2022-09-23T06:33:08;101449.88;;;5.60;96.22
57234;BME280;43090;52.604;13.318;2022-09-23T06:35:35;101455.16;;;5.84;96.09
57234;BME280;43090;52.604;13.318;2022-09-23T06:38:03;101474.72;;;6.05;95.71
57234;BME280;43090;52.604;13.318;2022-09-23T06:40:30;101453.16;;;5.67;97.89
57234;BME280;43090;52.604;13.318;2022-09-23T06:43:12;101472.28;;;5.77;98.05
57234;BME280;43090;52.604;13.318;2022-09-23T06:45:44;101496.91;;;6.26;97.22
57234;BME280;43090;52.604;13.318;2022-09-23T06:48:13;101515.44;;;6.50;98.27
57234;BME280;43090;52.604;13.318;2022-09-23T06:50:43;101465.44;;;6.15;99.83
57234;BME280;43090;52.604;13.318;2022-09-23T06:53:12;101510.66;;;6.58;99.02
57234;BME280;43090;52.604;13.318;2022-09-23T06:58:29;101441.09;;;6.47;100.00
57234;BME280;43090;52.604;13.318;2022-09-23T07:01:08;101509.81;;;6.99;99.85
57234;BME280;43090;52.604;13.318;2022-09-23T07:03:35;101502.47;;;7.25;98.93
57234;BME280;43090;52.604;13.318;2022-09-23T07:06:02;101504.78;;;7.32;98.95
57234;BME280;43090;52.604;13.318;2022-09-23T07:08:30;101500.69;;;7.44;99.00
57234;BME280;43090;52.604;13.318;2022-09-23T07:11:15;101491.00;;;7.62;99.83
57234;BME280;43090;52.604;13.318;2022-09-23T07:13:49;101469.09;;;7.75;99.29
57234;BME280;43090;52.604;13.318;2022-09-23T07:23:47;101455.16;;;8.06;100.00
57234;BME280;43090;52.604;13.318;2022-09-23T07:26:53;101450.31;;;8.32;99.67
57234;BME280;43090;52.604;13.318;2022-09-23T07:37:08;101519.31;;;9.27;97.58
57234;BME280;43090;52.604;13.318;2022-09-23T07:40:02;101509.56;;;9.44;96.67
57234;BME280;43090;52.604;13.318;2022-09-23T08:17:35;101492.47;;;10.73;89.54
57234;BME280;43090;52.604;13.318;2022-09-23T08:20:19;101483.75;;;10.99;87.58
57234;BME280;43090;52.604;13.318;2022-09-23T08:23:11;101457.78;;;10.86;88.73
57234;BME280;43090;52.604;13.318;2022-09-23T08:25:40;101456.72;;;10.74;85.73
57234;BME280;43090;52.604;13.318;2022-09-23T08:28:35;101492.78;;;11.27;86.97
57234;BME280;43090;52.604;13.318;2022-09-23T08:33:53;101463.47;;;11.39;85.25
57234;BME280;43090;52.604;13.318;2022-09-23T09:14:56;101436.97;;;12.18;72.10
57234;BME280;43090;52.604;13.318;2022-09-23T09:21:58;101469.94;;;12.60;73.47
57234;BME280;43090;52.604;13.318;2022-09-23T09:56:22;101423.41;;;13.37;66.62
57234;BME280;43090;52.604;13.318;2022-09-23T10:15:41;101400.50;;;13.18;61.40
57234;BME280;43090;52.604;13.318;2022-09-23T10:26:12;101368.25;;;13.68;59.39
57234;BME280;43090;52.604;13.318;2022-09-23T11:52:41;101293.25;;;14.69;53.28
57234;BME280;43090;52.604;13.318;2022-09-23T11:56:06;101275.13;;;14.71;52.81
57234;BME280;43090;52.604;13.318;2022-09-23T11:59:14;101323.19;;;13.94;56.99
57234;BME280;43090;52.604;13.318;2022-09-23T12:31:19;101225.44;;;15.07;51.10
57234;BME280;43090;52.604;13.318;2022-09-23T12:34:38;101276.50;;;15.31;50.29
57234;BME280;43090;52.604;13.318;2022-09-23T12:41:45;101214.66;;;15.07;49.79
57234;BME280;43090;52.604;13.318;2022-09-23T12:51:18;101255.13;;;15.40;49.88
57234;BME280;43090;52.604;13.318;2022-09-23T12:59:54;101203.03;;;15.60;47.69
57234;BME280;43090;52.604;13.318;2022-09-23T13:22:08;101215.00;;;15.14;49.71
57234;BME280;43090;52.604;13.318;2022-09-23T13:40:28;101155.19;;;15.62;45.49
57234;BME280;43090;52.604;13.318;2022-09-23T13:43:28;101204.28;;;15.56;50.90
57234;BME280;43090;52.604;13.318;2022-09-23T13:54:45;101171.94;;;16.08;44.71
57234;BME280;43090;52.604;13.318;2022-09-23T14:01:46;101110.59;;;15.89;47.20
57234;BME280;43090;52.604;13.318;2022-09-23T14:05:09;101113.66;;;16.06;47.07
57234;BME280;43090;52.604;13.318;2022-09-23T14:08:26;101126.47;;;16.13;45.44
57234;BME280;43090;52.604;13.318;2022-09-23T14:18:56;101175.91;;;16.35;48.95
57234;BME280;43090;52.604;13.318;2022-09-23T14:21:50;101168.16;;;16.52;45.32
57234;BME280;43090;52.604;13.318;2022-09-23T14:27:55;101101.84;;;15.76;49.77
57234;BME280;43090;52.604;13.318;2022-09-23T14:38:21;101099.06;;;15.87;55.92
57234;BME280;43090;52.604;13.318;2022-09-23T14:41:23;101087.31;;;15.25;52.10
57234;BME280;43090;52.604;13.318;2022-09-23T14:43:56;101130.34;;;15.47;55.70
57234;BME280;43090;52.604;13.318;2022-09-23T14:46:29;101126.25;;;15.95;49.30
57234;BME280;43090;52.604;13.318;2022-09-23T14:49:00;101123.19;;;15.58;52.54
57234;BME280;43090;52.604;13.318;2022-09-23T14:51:30;101138.59;;;15.88;47.93
57234;BME280;43090;52.604;13.318;2022-09-23T14:57:45;101116.84;;;15.69;45.67
57234;BME280;43090;52.604;13.318;2022-09-23T15:00:21;101139.69;;;15.64;55.16
57234;BME280;43090;52.604;13.318;2022-09-23T15:03:00;101112.25;;;15.17;57.00
57234;BME280;43090;52.604;13.318;2022-09-23T15:05:41;101100.41;;;14.76;55.18
57234;BME280;43090;52.604;13.318;2022-09-23T15:08:16;101136.19;;;15.10;55.67
57234;BME280;43090;52.604;13.318;2022-09-23T15:10:44;101104.41;;;15.14;58.22
57234;BME280;43090;52.604;13.318;2022-09-23T15:13:14;101097.72;;;14.76;58.11
57234;BME280;43090;52.604;13.318;2022-09-23T15:15:45;101114.09;;;14.84;61.42
57234;BME280;43090;52.604;13.318;2022-09-23T15:18:22;101142.56;;;14.77;61.71
57234;BME280;43090;52.604;13.318;2022-09-23T15:20:51;101086.22;;;14.51;60.04
57234;BME280;43090;52.604;13.318;2022-09-23T15:26:10;101118.66;;;14.72;61.29
57234;BME280;43090;52.604;13.318;2022-09-23T15:28:37;101072.31;;;14.35;60.29
57234;BME280;43090;52.604;13.318;2022-09-23T15:31:04;101066.09;;;14.34;62.21
57234;BME280;43090;52.604;13.318;2022-09-23T15:33:31;101112.22;;;14.63;62.54
57234;BME280;43090;52.604;13.318;2022-09-23T15:35:58;101103.88;;;14.44;65.41
57234;BME280;43090;52.604;13.318;2022-09-23T15:38:28;101101.69;;;14.38;65.36
57234;BME280;43090;52.604;13.318;2022-09-23T15:40:54;101090.97;;;14.59;62.94
57234;BME280;43090;52.604;13.318;2022-09-23T15:43:23;101108.75;;;14.61;61.76
57234;BME280;43090;52.604;13.318;2022-09-23T15:45:55;101098.03;;;14.05;65.55
57234;BME280;43090;52.604;13.318;2022-09-23T15:48:37;101059.63;;;13.91;62.97
57234;BME280;43090;52.604;13.318;2022-09-23T15:51:06;101084.97;;;14.00;64.86
57234;BME280;43090;52.604;13.318;2022-09-23T15:53:34;101082.63;;;13.95;67.31
57234;BME280;43090;52.604;13.318;2022-09-23T15:56:03;101084.69;;;14.26;63.00
57234;BME280;43090;52.604;13.318;2022-09-23T15:58:30;101065.03;;;14.03;68.74
57234;BME280;43090;52.604;13.318;2022-09-23T16:00:58;101095.00;;;14.09;71.36
57234;BME280;43090;52.604;13.318;2022-09-23T16:03:32;101102.34;;;14.07;69.23
57234;BME280;43090;52.604;13.318;2022-09-23T16:06:00;101087.91;;;14.08;66.84
57234;BME280;43090;52.604;13.318;2022-09-23T16:08:32;101084.13;;;13.88;67.29
57234;BME280;43090;52.604;13.318;2022-09-23T16:11:01;101086.78;;;13.99;71.54
57234;BME280;43090;52.604;13.318;2022-09-23T16:13:28;101100.25;;;13.88;69.75
57234;BME280;43090;52.604;13.318;2022-09-23T16:16:21;101104.16;;;13.73;71.72
57234;BME280;43090;52.604;13.318;2022-09-23T16:18:53;101066.47;;;13.50;74.11
57234;BME280;43090;52.604;13.318;2022-09-23T16:25:28;101110.25;;;13.63;72.69
57234;BME280;43090;52.604;13.318;2022-09-23T16:27:57;101086.94;;;13.28;77.42
57234;BME280;43090;52.604;13.318;2022-09-23T16:30:28;101078.69;;;13.07;77.06
57234;BME280;43090;52.604;13.318;2022-09-23T16:33:16;101050.34;;;13.14;78.00
57234;BME280;43090;52.604;13.318;2022-09-23T16:35:50;101044.06;;;12.91;79.59
57234;BME280;43090;52.604;13.318;2022-09-23T16:38:17;101090.03;;;13.11;80.82
57234;BME280;43090;52.604;13.318;2022-09-23T16:40:43;101087.53;;;13.21;80.51
57234;BME280;43090;52.604;13.318;2022-09-23T16:43:15;101089.97;;;13.12;79.38
57234;BME280;43090;52.604;13.318;2022-09-23T16:45:42;101065.25;;;12.72;83.83
57234;BME280;43090;52.604;13.318;2022-09-23T16:48:11;101049.84;;;12.74;83.80
57234;BME280;43090;52.604;13.318;2022-09-23T16:50:38;101033.06;;;12.59;83.38
57234;BME280;43090;52.604;13.318;2022-09-23T16:53:05;101079.50;;;12.96;81.64
57234;BME280;43090;52.604;13.318;2022-09-23T16:55:32;101064.53;;;12.57;83.85
57234;BME280;43090;52.604;13.318;2022-09-23T16:57:58;101036.03;;;12.43;83.15
57234;BME280;43090;52.604;13.318;2022-09-23T17:00:39;101066.84;;;12.74;80.50
57234;BME280;43090;52.604;13.318;2022-09-23T17:03:24;101073.69;;;12.78;80.34
57234;BME280;43090;52.604;13.318;2022-09-23T17:06:13;101032.53;;;12.29;80.71
57234;BME280;43090;52.604;13.318;2022-09-23T17:08:41;101076.56;;;12.40;83.06
57234;BME280;43090;52.604;13.318;2022-09-23T17:11:08;101041.16;;;12.22;84.33
57234;BME280;43090;52.604;13.318;2022-09-23T17:13:39;101054.06;;;12.16;84.30
57234;BME280;43090;52.604;13.318;2022-09-23T17:16:09;101061.16;;;12.18;81.80
57234;BME280;43090;52.604;13.318;2022-09-23T17:18:37;101069.22;;;12.05;80.67
57234;BME280;43090;52.604;13.318;2022-09-23T17:21:06;101071.78;;;12.06;79.38
57234;BME280;43090;52.604;13.318;2022-09-23T17:23:34;101058.47;;;11.92;81.70
57234;BME280;43090;52.604;13.318;2022-09-23T17:30:23;101011.31;;;11.38;80.24
57234;BME280;43090;52.604;13.318;2022-09-23T17:33:17;101023.44;;;11.30;81.65
57234;BME280;43090;52.604;13.318;2022-09-23T17:35:55;101036.09;;;11.28;81.23
57234;BME280;43090;52.604;13.318;2022-09-23T17:38:29;101046.06;;;11.26;80.64
57234;BME280;43090;52.604;13.318;2022-09-23T17:44:47;101037.66;;;10.92;81.39
57234;BME280;43090;52.604;13.318;2022-09-23T17:47:42;101051.72;;;10.96;81.44
57234;BME280;43090;52.604;13.318;2022-09-23T17:50:13;101043.16;;;11.04;80.63
57234;BME280;43090;52.604;13.318;2022-09-23T17:52:40;101047.09;;;10.85;82.00
57234;BME280;43090;52.604;13.318;2022-09-23T17:55:15;101068.00;;;10.93;84.47
57234;BME280;43090;52.604;13.318;2022-09-23T17:58:11;101038.69;;;10.64;84.90
57234;BME280;43090;52.604;13.318;2022-09-23T18:00:57;101016.53;;;10.75;84.38
57234;BME280;43090;52.604;13.318;2022-09-23T18:03:26;101047.91;;;10.73;83.06
57234;BME280;43090;52.604;13.318;2022-09-23T18:09:25;101028.31;;;10.30;83.85
57234;BME280;43090;52.604;13.318;2022-09-23T18:20:27;101058.34;;;10.21;86.72
57234;BME280;43090;52.604;13.318;2022-09-23T21:00:36;100987.59;;;9.42;91.69
57234;BME280;43090;52.604;13.318;2022-09-23T21:03:43;101008.78;;;9.74;91.25
57234;BME280;43090;52.604;13.318;2022-09-23T21:10:11;100990.25;;;9.56;90.41
57234;BME280;43090;52.604;13.318;2022-09-23T21:13:08;100982.34;;;9.55;91.16
57234;BME280;43090;52.604;13.318;2022-09-23T21:15:43;100985.97;;;9.54;91.79
57234;BME280;43090;52.604;13.318;2022-09-23T21:18:18;101006.13;;;10.01;90.70
57234;BME280;43090;52.604;13.318;2022-09-23T21:21:37;100951.53;;;9.34;91.92
57234;BME280;43090;52.604;13.318;2022-09-23T21:24:23;100992.53;;;9.77;91.84
57234;BME280;43090;52.604;13.318;2022-09-23T21:27:16;100971.97;;;9.92;91.61
57234;BME280;43090;52.604;13.318;2022-09-23T21:31:09;100958.06;;;9.58;91.84
57234;BME280;43090;52.604;13.318;2022-09-23T21:37:32;100955.31;;;9.74;90.69
57234;BME280;43090;52.604;13.318;2022-09-23T21:40:36;100949.13;;;9.44;90.83
57234;BME280;43090;52.604;13.318;2022-09-23T21:43:42;100948.63;;;9.66;91.24
57234;BME280;43090;52.604;13.318;2022-09-23T21:47:14;101009.22;;;9.95;91.28
57234;BME280;43090;52.604;13.318;2022-09-23T21:53:35;100961.03;;;9.67;91.60
57234;BME280;43090;52.604;13.318;2022-09-23T21:57:11;100946.97;;;9.78;90.62
57234;BME280;43090;52.604;13.318;2022-09-23T22:04:29;101001.59;;;10.16;90.94
57234;BME280;43090;52.604;13.318;2022-09-23T22:07:13;100977.78;;;9.98;89.68
57234;BME280;43090;52.604;13.318;2022-09-23T22:10:00;100950.47;;;9.93;89.75
57234;BME280;43090;52.604;13.318;2022-09-23T22:12:27;100935.66;;;10.02;88.88
57234;BME280;43090;52.604;13.318;2022-09-23T22:14:57;100961.00;;;10.09;88.60
57234;BME280;43090;52.604;13.318;2022-09-23T22:17:27;100942.97;;;9.86;88.45
57234;BME280;43090;52.604;13.318;2022-09-23T22:19:59;100989.50;;;10.10;89.11
57234;BME280;43090;52.604;13.318;2022-09-23T22:22:27;100935.81;;;9.72;89.40
57234;BME280;43090;52.604;13.318;2022-09-23T22:24:54;100992.28;;;10.09;89.81
57234;BME280;43090;52.604;13.318;2022-09-23T22:27:21;100942.81;;;9.60;91.58
57234;BME280;43090;52.604;13.318;2022-09-23T22:29:49;100944.78;;;9.71;89.36
57234;BME280;43090;52.604;13.318;2022-09-23T22:32:34;100976.56;;;10.17;90.34
57234;BME280;43090;52.604;13.318;2022-09-23T22:35:15;100937.06;;;9.80;90.11
57234;BME280;43090;52.604;13.318;2022-09-23T22:37:45;100923.97;;;9.76;90.08
57234;BME280;43090;52.604;13.318;2022-09-23T22:40:14;100944.28;;;9.93;89.74
57234;BME280;43090;52.604;13.318;2022-09-23T22:42:42;100949.47;;;10.09;88.41
57234;BME280;43090;52.604;13.318;2022-09-23T22:45:10;100959.75;;;9.88;89.16
57234;BME280;43090;52.604;13.318;2022-09-23T22:47:38;100934.94;;;10.13;88.69
57234;BME280;43090;52.604;13.318;2022-09-23T22:50:12;100913.84;;;9.81;89.98
57234;BME280;43090;52.604;13.318;2022-09-23T22:52:47;100906.03;;;9.78;90.41
57234;BME280;43090;52.604;13.318;2022-09-23T22:55:14;100906.31;;;9.73;88.79
57234;BME280;43090;52.604;13.318;2022-09-23T22:57:53;100916.13;;;9.87;88.90
57234;BME280;43090;52.604;13.318;2022-09-23T23:00:47;100919.69;;;9.73;89.71
57234;BME280;43090;52.604;13.318;2022-09-23T23:03:14;100933.50;;;9.80;89.86
57234;BME280;43090;52.604;13.318;2022-09-23T23:05:52;100909.94;;;9.72;90.41
57234;BME280;43090;52.604;13.318;2022-09-23T23:08:31;100925.75;;;9.90;90.16
57234;BME280;43090;52.604;13.318;2022-09-23T23:11:02;100922.34;;;9.73;90.04
57234;BME280;43090;52.604;13.318;2022-09-23T23:13:31;100944.47;;;9.90;89.62
57234;BME280;43090;52.604;13.318;2022-09-23T23:16:01;100903.75;;;9.72;90.67
57234;BME280;43090;52.604;13.318;2022-09-23T23:18:34;100933.72;;;9.77;89.65
57234;BME280;43090;52.604;13.318;2022-09-23T23:21:15;100895.13;;;9.81;89.13
57234;BME280;43090;52.604;13.318;2022-09-23T23:23:45;100922.63;;;9.83;89.25
57234;BME280;43090;52.604;13.318;2022-09-23T23:26:19;100934.84;;;9.87;89.97
57234;BME280;43090;52.604;13.318;2022-09-23T23:28:47;100900.22;;;9.71;89.33
57234;BME280;43090;52.604;13.318;2022-09-23T23:31:17;100925.94;;;9.87;89.37
57234;BME280;43090;52.604;13.318;2022-09-23T23:33:47;100923.78;;;10.06;89.07
57234;BME280;43090;52.604;13.318;2022-09-23T23:36:20;100892.22;;;9.84;89.78
57234;BME280;43090;52.604;13.318;2022-09-23T23:38:48;100907.38;;;9.98;88.99
57234;BME280;43090;52.604;13.318;2022-09-23T23:41:28;100946.13;;;10.05;89.39
57234;BME280;43090;52.604;13.318;2022-09-23T23:45:08;100938.97;;;10.06;89.61
57234;BME280;43090;52.604;13.318;2022-09-23T23:48:31;100928.31;;;9.91;89.83
57234;BME280;43090;52.604;13.318;2022-09-23T23:54:57;100877.53;;;9.49;92.65
